Time;durP1;ratioP1;P1;durP2;ratioP2;P2;SDS_P1;SDS_P2;PMS_P1;PMS_P2;Temp;Humidity;BMP_temperature;BMP_pressure;BME280_temperature;BME280_humidity;BME280_pressure;Samples;Min_cycle;Max_cycle;Signal;HPM_P1;HPM_P2
2022/07/09 00:01:07;;;;;;;303.07;291.63;;;13.60;99.90;;;;;;4952397;29;20449;-83
2022/07/09 00:03:33;;;;;;;350.33;336.90;;;13.60;99.90;;;;;;4952884;29;20460;-84
2022/07/09 00:06:02;;;;;;;379.90;364.40;;;13.50;99.90;;;;;;4952343;29;20460;-83
2022/07/09 00:08:29;;;;;;;363.97;349.37;;;13.50;99.90;;;;;;4952766;29;20488;-84
2022/07/09 00:10:57;;;;;;;405.57;389.70;;;13.40;99.90;;;;;;4952225;29;20457;-83
2022/07/09 00:13:24;;;;;;;442.30;424.37;;;13.30;99.90;;;;;;4952634;29;20477;-84
2022/07/09 00:15:52;;;;;;;431.23;413.83;;;13.30;99.90;;;;;;4952908;29;20457;-83
2022/07/09 00:18:19;;;;;;;448.83;430.37;;;13.30;99.90;;;;;;4952497;29;20448;-83
2022/07/09 00:20:46;;;;;;;514.50;492.40;;;13.20;99.90;;;;;;4952399;29;21126;-84
2022/07/09 00:23:13;;;;;;;491.13;470.63;;;13.20;99.90;;;;;;4951576;29;20468;-83
2022/07/09 00:25:39;;;;;;;478.27;458.23;;;13.20;99.90;;;;;;4952271;29;20453;-84
2022/07/09 00:28:07;;;;;;;466.47;446.37;;;13.10;99.90;;;;;;4951659;29;20973;-83
2022/07/09 00:30:34;;;;;;;454.77;434.83;;;13.00;99.90;;;;;;4952038;29;20457;-84
2022/07/09 00:33:01;;;;;;;497.97;476.67;;;13.00;99.90;;;;;;4952173;29;20536;-83
2022/07/09 00:35:28;;;;;;;515.20;492.70;;;13.00;99.90;;;;;;4951916;29;20456;-83
2022/07/09 00:37:55;;;;;;;463.33;443.27;;;13.00;99.90;;;;;;4951549;29;20457;-84
2022/07/09 00:40:22;;;;;;;531.37;507.57;;;12.90;99.90;;;;;;4951926;29;20459;-84
2022/07/09 00:42:48;;;;;;;508.47;486.13;;;13.00;99.90;;;;;;4952446;29;20468;-84
2022/07/09 00:45:17;;;;;;;495.00;473.20;;;12.90;99.90;;;;;;4952186;29;20463;-83
2022/07/09 00:47:44;;;;;;;505.70;482.67;;;12.90;99.90;;;;;;4951788;29;20467;-83
2022/07/09 00:50:11;;;;;;;510.40;487.57;;;12.90;99.90;;;;;;4952245;29;20453;-83
2022/07/09 00:52:39;;;;;;;519.40;495.40;;;12.80;99.90;;;;;;4951957;29;20480;-84
2022/07/09 00:55:07;;;;;;;506.30;483.80;;;12.80;99.90;;;;;;4951594;29;20501;-83
2022/07/09 00:57:35;;;;;;;521.10;497.57;;;12.80;99.90;;;;;;4951426;29;20453;-84
2022/07/09 01:00:02;;;;;;;504.07;481.37;;;12.70;99.90;;;;;;4952563;29;20859;-83
2022/07/09 01:02:30;;;;;;;569.67;542.87;;;12.70;99.90;;;;;;4951071;29;20571;-84
2022/07/09 01:04:57;;;;;;;608.90;578.60;;;12.70;99.90;;;;;;4951613;29;20459;-84
2022/07/09 01:07:24;;;;;;;650.20;616.80;;;12.70;99.90;;;;;;4951009;29;20453;-84
2022/07/09 01:09:50;;;;;;;609.93;579.33;;;12.60;99.90;;;;;;4951044;29;20548;-84
2022/07/09 01:12:17;;;;;;;564.93;537.93;;;12.60;99.90;;;;;;4951593;29;20473;-84
2022/07/09 01:14:44;;;;;;;587.23;558.63;;;12.60;99.90;;;;;;4951739;29;20461;-84
2022/07/09 01:17:11;;;;;;;659.93;626.23;;;12.60;99.90;;;;;;4951597;29;20910;-83
2022/07/09 01:19:39;;;;;;;691.70;655.67;;;12.60;99.90;;;;;;4952116;29;20594;-84
2022/07/09 01:22:07;;;;;;;624.13;593.43;;;12.60;99.90;;;;;;4951348;29;20476;-83
2022/07/09 01:24:34;;;;;;;663.50;630.30;;;12.60;99.90;;;;;;4951422;29;20552;-83
2022/07/09 01:27:01;;;;;;;650.20;618.47;;;12.50;99.90;;;;;;4951945;29;20457;-84
2022/07/09 01:29:28;;;;;;;637.07;605.50;;;12.50;99.90;;;;;;4950467;29;20487;-84
2022/07/09 01:31:55;;;;;;;700.83;663.90;;;12.50;99.90;;;;;;4951036;29;20479;-83
2022/07/09 01:34:21;;;;;;;800.00;753.70;;;12.50;99.90;;;;;;4949665;29;20828;-83
2022/07/09 01:36:48;;;;;;;788.90;743.70;;;12.60;99.90;;;;;;4950578;29;20463;-83
2022/07/09 01:39:16;;;;;;;824.23;775.67;;;12.60;99.90;;;;;;4950502;29;20454;-83
2022/07/09 01:41:43;;;;;;;735.70;694.77;;;12.60;99.90;;;;;;4951395;29;20485;-83
2022/07/09 01:44:10;;;;;;;715.10;676.33;;;12.60;99.90;;;;;;4950664;29;20459;-83
2022/07/09 01:46:36;;;;;;;732.47;692.47;;;12.50;99.90;;;;;;4951683;29;20463;-84
2022/07/09 01:49:03;;;;;;;738.63;698.10;;;12.60;99.90;;;;;;4952441;29;20481;-83
2022/07/09 01:51:30;;;;;;;698.00;661.03;;;12.60;99.90;;;;;;4955368;29;20476;-83
2022/07/09 01:53:57;;;;;;;738.57;698.60;;;12.60;99.90;;;;;;4954272;29;20452;-84
2022/07/09 01:56:25;;;;;;;755.37;713.07;;;12.60;99.90;;;;;;4955095;29;20457;-84
2022/07/09 01:58:52;;;;;;;734.37;694.10;;;12.70;99.90;;;;;;4955866;29;20459;-84
2022/07/09 02:01:20;;;;;;;668.47;633.27;;;12.70;99.90;;;;;;4955749;29;20456;-83
2022/07/09 02:03:47;;;;;;;744.93;703.43;;;12.80;99.90;;;;;;4955307;29;20488;-83
2022/07/09 02:06:13;;;;;;;739.70;698.23;;;12.80;99.90;;;;;;4954553;29;20496;-84
2022/07/09 02:08:40;;;;;;;718.87;679.33;;;13.00;99.90;;;;;;4954788;29;20476;-84
2022/07/09 02:11:07;;;;;;;760.67;716.97;;;13.00;99.90;;;;;;4955070;29;20459;-84
2022/07/09 02:13:35;;;;;;;734.43;693.90;;;13.10;99.90;;;;;;4955608;29;20452;-84
2022/07/09 02:16:02;;;;;;;670.77;636.03;;;13.20;99.90;;;;;;4955192;29;20500;-84
2022/07/09 02:18:29;;;;;;;652.63;619.17;;;13.20;99.90;;;;;;4954920;29;20459;-84
2022/07/09 02:20:56;;;;;;;646.23;613.63;;;13.30;99.90;;;;;;4955247;29;20543;-84
2022/07/09 02:23:23;;;;;;;615.80;584.23;;;13.30;99.90;;;;;;4955628;29;20549;-83
2022/07/09 02:25:50;;;;;;;616.67;585.87;;;13.40;99.90;;;;;;4953063;29;20452;-82
2022/07/09 02:28:17;;;;;;;608.47;578.83;;;13.50;99.90;;;;;;4949447;29;20480;-82
2022/07/09 02:30:45;;;;;;;632.73;601.93;;;13.50;99.90;;;;;;4935080;29;20493;-81
2022/07/09 02:33:12;;;;;;;643.73;612.40;;;13.50;99.90;;;;;;4942259;29;20472;-81
2022/07/09 02:35:39;;;;;;;630.57;601.00;;;13.50;99.90;;;;;;4935064;29;20462;-81
2022/07/09 02:38:05;;;;;;;599.83;572.23;;;13.50;99.90;;;;;;4934794;29;20449;-81
2022/07/09 02:40:32;;;;;;;604.53;576.00;;;13.50;99.90;;;;;;4949021;29;20456;-81
2022/07/09 02:42:59;;;;;;;558.43;533.33;;;13.50;99.90;;;;;;4953949;29;20480;-81
2022/07/09 02:45:25;;;;;;;552.83;527.70;;;13.50;99.90;;;;;;4954472;29;20453;-85
2022/07/09 02:47:53;;;;;;;587.33;560.03;;;13.40;99.90;;;;;;4954618;29;20453;-79
2022/07/09 02:50:20;;;;;;;636.60;605.00;;;13.50;99.90;;;;;;4949462;29;20526;-79
2022/07/09 02:52:47;;;;;;;612.27;582.60;;;13.50;99.90;;;;;;4950118;29;20476;-80
2022/07/09 02:55:14;;;;;;;683.33;649.03;;;13.40;99.90;;;;;;4949888;29;20452;-80
2022/07/09 02:57:41;;;;;;;682.70;648.33;;;13.50;99.90;;;;;;4950738;29;20452;-79
2022/07/09 03:00:08;;;;;;;660.60;628.10;;;13.50;99.90;;;;;;4950180;29;20453;-79
2022/07/09 03:02:35;;;;;;;671.10;638.30;;;13.50;99.90;;;;;;4949570;29;20481;-79
2022/07/09 03:05:04;;;;;;;706.40;670.63;;;13.50;99.90;;;;;;4950681;29;20460;-79
2022/07/09 03:07:31;;;;;;;660.60;628.70;;;13.40;99.90;;;;;;4949706;29;20460;-79
2022/07/09 03:09:57;;;;;;;727.20;689.87;;;13.30;99.90;;;;;;4949881;29;20480;-79
2022/07/09 03:12:24;;;;;;;718.03;681.90;;;13.20;99.90;;;;;;4937790;29;20487;-80
2022/07/09 03:14:51;;;;;;;744.03;704.37;;;13.20;99.90;;;;;;4947963;29;20456;-79
2022/07/09 03:17:18;;;;;;;824.03;777.97;;;13.00;99.90;;;;;;4948501;29;20453;-79
2022/07/09 03:19:44;;;;;;;875.17;823.40;;;13.00;99.90;;;;;;4946250;29;20487;-79
2022/07/09 03:22:13;;;;;;;918.97;863.47;;;13.00;99.90;;;;;;4947611;29;20480;-79
2022/07/09 03:24:39;;;;;;;912.30;856.47;;;13.10;99.90;;;;;;4946323;29;20456;-79
2022/07/09 03:27:06;;;;;;;905.53;849.83;;;13.00;99.90;;;;;;4948286;29;20452;-80
2022/07/09 03:29:33;;;;;;;880.87;828.50;;;13.00;99.90;;;;;;4948867;29;20875;-78
2022/07/09 03:32:00;;;;;;;878.80;826.33;;;12.90;99.90;;;;;;4949854;29;20473;-79
2022/07/09 03:34:27;;;;;;;921.90;865.30;;;12.90;99.90;;;;;;4950108;29;20463;-79
2022/07/09 03:36:54;;;;;;;972.73;908.23;;;12.90;99.90;;;;;;4948542;29;20464;-79
2022/07/09 03:39:22;;;;;;;957.67;894.40;;;13.00;99.90;;;;;;4949626;29;20448;-79
2022/07/09 03:41:49;;;;;;;938.97;878.70;;;13.00;99.90;;;;;;4947881;29;20477;-79
2022/07/09 03:44:15;;;;;;;939.77;873.87;;;13.10;99.90;;;;;;4948516;29;20457;-79
2022/07/09 03:46:42;;;;;;;917.17;856.60;;;13.20;99.90;;;;;;4947469;29;20453;-81
2022/07/09 03:49:09;;;;;;;916.67;851.80;;;13.10;99.90;;;;;;4955252;29;20484;-82
2022/07/09 03:52:01;;;;;;;930.70;867.70;;;13.20;99.90;;;;;;4954078;29;20704;-84
2022/07/09 03:54:29;;;;;;;928.47;866.93;;;13.20;99.90;;;;;;4931912;29;20469;-84
2022/07/09 03:56:56;;;;;;;933.77;872.13;;;13.20;99.90;;;;;;4935364;29;20438;-85
2022/07/09 03:59:23;;;;;;;952.07;885.93;;;13.20;99.90;;;;;;4950340;29;20459;-79
2022/07/09 04:01:49;;;;;;;923.37;862.03;;;13.20;99.90;;;;;;4947125;29;20484;-79
2022/07/09 04:04:16;;;;;;;923.00;862.70;;;13.20;99.90;;;;;;4946721;29;20817;-79
2022/07/09 04:06:43;;;;;;;920.63;860.37;;;13.30;99.90;;;;;;4947320;29;20453;-79
2022/07/09 04:09:10;;;;;;;918.80;860.50;;;13.30;99.90;;;;;;4947873;29;20480;-80
2022/07/09 04:11:38;;;;;;;928.87;869.07;;;13.40;99.90;;;;;;4946463;29;20564;-79
2022/07/09 04:14:04;;;;;;;927.27;869.53;;;13.40;99.90;;;;;;4946252;29;20876;-79
2022/07/09 04:16:31;;;;;;;907.17;851.00;;;13.40;99.90;;;;;;4946637;29;20456;-79
2022/07/09 04:18:58;;;;;;;925.67;867.47;;;13.50;99.90;;;;;;4945716;29;20468;-79
2022/07/09 04:21:24;;;;;;;927.90;870.30;;;13.50;99.90;;;;;;4944848;29;20452;-79
2022/07/09 04:23:52;;;;;;;882.07;827.17;;;13.60;99.90;;;;;;4945594;29;20467;-79
2022/07/09 04:26:19;;;;;;;826.97;777.27;;;13.60;99.90;;;;;;4946870;29;21006;-79
2022/07/09 04:28:48;;;;;;;817.00;769.03;;;13.60;99.90;;;;;;4948093;29;20461;-79
2022/07/09 04:31:15;;;;;;;781.97;736.20;;;13.60;99.90;;;;;;4946981;29;20449;-79
2022/07/09 04:33:42;;;;;;;786.87;741.53;;;13.60;99.90;;;;;;4947338;29;20449;-79
2022/07/09 04:36:09;;;;;;;806.20;759.77;;;13.60;99.90;;;;;;4946301;29;20536;-79
2022/07/09 04:38:36;;;;;;;821.57;773.17;;;13.70;99.90;;;;;;4946270;29;20456;-79
2022/07/09 04:41:02;;;;;;;815.20;767.40;;;13.70;99.90;;;;;;4947010;29;20455;-80
2022/07/09 04:43:29;;;;;;;817.40;769.27;;;13.80;99.90;;;;;;4947510;29;20483;-79
2022/07/09 04:45:58;;;;;;;819.03;771.07;;;13.80;99.90;;;;;;4947126;29;20445;-80
2022/07/09 04:48:25;;;;;;;859.27;807.47;;;13.90;99.90;;;;;;4947879;29;20457;-79
2022/07/09 04:50:52;;;;;;;876.87;821.47;;;13.90;99.90;;;;;;4947618;29;20473;-80
2022/07/09 04:53:19;;;;;;;873.03;818.30;;;14.10;99.90;;;;;;4945517;29;20986;-79
2022/07/09 04:55:46;;;;;;;784.57;737.97;;;14.30;99.90;;;;;;4950827;29;20485;-82
2022/07/09 04:58:14;;;;;;;724.23;683.03;;;14.30;99.90;;;;;;4945198;29;20467;-87
2022/07/09 05:00:41;;;;;;;713.60;674.20;;;14.40;99.90;;;;;;4941797;29;20503;-86
2022/07/09 05:03:16;;;;;;;681.47;644.87;;;14.40;99.90;;;;;;4944821;29;20488;-87
2022/07/09 05:05:43;;;;;;;708.20;670.83;;;14.50;99.90;;;;;;4944223;29;20528;-86
2022/07/09 05:08:09;;;;;;;747.23;706.17;;;14.60;99.90;;;;;;4932802;29;20457;-85
2022/07/09 05:10:36;;;;;;;725.70;686.50;;;14.70;99.90;;;;;;4945252;29;20486;-85
2022/07/09 05:13:06;;;;;;;707.67;669.87;;;14.90;99.90;;;;;;4943624;29;20557;-86
2022/07/09 05:15:33;;;;;;;694.40;657.13;;;15.00;99.90;;;;;;4941790;29;20499;-85
2022/07/09 05:18:05;;;;;;;675.83;640.17;;;15.20;99.90;;;;;;4945523;29;20456;-86
2022/07/09 05:20:33;;;;;;;679.23;643.53;;;15.40;99.90;;;;;;4945271;29;20547;-85
2022/07/09 05:23:00;;;;;;;694.37;656.30;;;15.60;99.90;;;;;;4942970;29;20478;-84
2022/07/09 05:25:27;;;;;;;679.43;641.67;;;16.00;99.90;;;;;;4943048;29;20461;-84
2022/07/09 05:27:53;;;;;;;627.33;594.53;;;16.20;99.90;;;;;;4940240;29;20458;-84
2022/07/09 05:30:20;;;;;;;568.80;540.87;;;16.40;99.90;;;;;;4941561;29;20493;-84
2022/07/09 05:32:47;;;;;;;528.77;504.17;;;16.70;99.90;;;;;;4940958;29;20474;-83
2022/07/09 05:35:14;;;;;;;379.27;362.87;;;17.10;99.90;;;;;;4939443;29;20462;-84
2022/07/09 05:37:45;;;;;;;165.90;158.27;;;17.50;99.90;;;;;;4939607;29;20457;-84
2022/07/09 05:40:13;;;;;;;30.93;27.50;;;17.90;99.90;;;;;;4939733;29;20477;-84
2022/07/09 05:42:40;;;;;;;42.73;20.60;;;18.40;96.40;;;;;;4940742;29;20863;-84
2022/07/09 05:45:08;;;;;;;64.40;20.73;;;18.90;91.60;;;;;;4939557;29;20469;-84
2022/07/09 05:47:35;;;;;;;69.13;23.30;;;19.20;90.70;;;;;;4940168;29;20459;-84
2022/07/09 05:50:01;;;;;;;37.10;19.13;;;19.30;88.70;;;;;;4940633;29;20492;-84
2022/07/09 05:52:28;;;;;;;24.13;14.93;;;19.60;85.70;;;;;;4940185;29;20524;-86
2022/07/09 05:54:56;;;;;;;20.73;14.67;;;19.60;84.40;;;;;;4942628;29;20464;-86
2022/07/09 05:57:23;;;;;;;17.80;12.53;;;19.70;81.10;;;;;;4937378;29;20968;-86
2022/07/09 05:59:50;;;;;;;20.47;12.60;;;19.90;81.30;;;;;;4943346;29;20974;-85
2022/07/09 06:02:18;;;;;;;18.47;10.97;;;19.90;80.90;;;;;;4939655;29;20485;-79
2022/07/09 06:04:45;;;;;;;14.33;11.80;;;20.20;76.60;;;;;;4937982;29;20916;-80
2022/07/09 06:07:14;;;;;;;14.07;11.07;;;20.30;76.80;;;;;;4936941;29;20453;-80
2022/07/09 06:09:41;;;;;;;18.43;10.33;;;20.30;76.30;;;;;;4937245;29;20571;-80
2022/07/09 06:12:09;;;;;;;18.60;11.47;;;20.30;75.70;;;;;;4937588;29;20479;-80
2022/07/09 06:14:36;;;;;;;18.03;10.70;;;20.60;75.70;;;;;;4936839;29;20463;-81
2022/07/09 06:17:06;;;;;;;16.23;10.60;;;20.90;73.00;;;;;;4937581;29;20814;-80
2022/07/09 06:19:34;;;;;;;20.20;11.83;;;21.20;71.20;;;;;;4937144;29;20462;-81
2022/07/09 06:22:01;;;;;;;12.30;8.90;;;21.40;69.50;;;;;;4938412;29;20476;-81
2022/07/09 06:24:28;;;;;;;14.73;9.77;;;21.50;67.70;;;;;;4938788;29;20468;-81
2022/07/09 06:26:54;;;;;;;15.27;8.63;;;21.60;68.10;;;;;;4938990;29;20485;-81
2022/07/09 06:29:22;;;;;;;12.83;9.90;;;21.80;64.90;;;;;;4938703;29;20462;-81
2022/07/09 06:31:49;;;;;;;12.07;7.70;;;21.50;63.60;;;;;;4939240;29;20478;-81
2022/07/09 06:34:20;;;;;;;12.00;7.70;;;21.60;61.20;;;;;;4939325;29;20463;-81
2022/07/09 06:36:48;;;;;;;9.80;7.50;;;21.90;62.20;;;;;;4943250;29;20518;-81
2022/07/09 06:42:06;;;;;;;10.63;6.47;;;22.30;58.00;;;;;;4942211;29;20534;-81
2022/07/09 06:44:35;;;;;;;9.40;6.60;;;22.40;56.90;;;;;;4942871;29;20886;-81
2022/07/09 06:47:04;;;;;;;12.10;5.23;;;22.60;57.60;;;;;;4942158;29;20466;-80
2022/07/09 06:49:30;;;;;;;8.60;3.90;;;22.50;52.60;;;;;;4940895;29;20463;-80
2022/07/09 06:51:57;;;;;;;5.90;2.47;;;22.70;51.50;;;;;;4941869;29;20570;-80
2022/07/09 06:54:24;;;;;;;6.17;2.10;;;22.80;47.00;;;;;;4940845;29;20456;-80
2022/07/09 06:56:52;;;;;;;13.53;2.70;;;23.10;47.40;;;;;;4941008;29;20957;-80
2022/07/09 06:59:21;;;;;;;5.53;1.90;;;23.30;47.40;;;;;;4941057;29;20456;-80
2022/07/09 07:01:50;;;;;;;6.17;2.47;;;22.90;47.10;;;;;;4940312;29;20539;-80
2022/07/09 07:04:19;;;;;;;5.10;2.10;;;23.30;44.80;;;;;;4941618;29;20520;-82
2022/07/09 07:06:48;;;;;;;7.10;2.27;;;22.90;44.40;;;;;;4944473;29;20480;-84
2022/07/09 07:09:18;;;;;;;5.63;2.30;;;22.70;46.90;;;;;;4944575;29;20489;-82
2022/07/09 07:11:46;;;;;;;5.17;2.00;;;23.00;47.20;;;;;;4946467;29;20571;-85
2022/07/09 07:14:12;;;;;;;6.63;1.90;;;23.10;44.30;;;;;;4944272;29;20834;-85
2022/07/09 07:16:39;;;;;;;6.37;2.33;;;23.10;44.30;;;;;;4946638;29;20471;-84
2022/07/09 07:19:10;;;;;;;5.53;2.30;;;23.10;44.80;;;;;;4945623;29;20463;-85
2022/07/09 07:21:42;;;;;;;7.70;2.47;;;23.40;43.90;;;;;;4944629;29;20468;-84
2022/07/09 07:24:10;;;;;;;7.53;2.20;;;23.40;43.00;;;;;;4945086;29;20461;-85
2022/07/09 07:26:37;;;;;;;8.00;2.70;;;23.80;42.60;;;;;;4943968;29;20804;-84
2022/07/09 07:29:03;;;;;;;6.40;2.90;;;23.80;40.10;;;;;;4944888;29;20453;-84
2022/07/09 07:31:30;;;;;;;10.10;3.40;;;23.30;39.10;;;;;;4944420;29;20484;-84
2022/07/09 07:33:57;;;;;;;5.67;2.60;;;23.50;41.50;;;;;;4944573;29;21033;-83
2022/07/09 07:36:50;;;;;;;5.57;2.77;;;23.40;42.40;;;;;;4946493;29;20459;-85
2022/07/09 07:39:32;;;;;;;6.63;3.33;;;23.30;41.20;;;;;;4908996;29;20469;-86
2022/07/09 07:41:59;;;;;;;5.63;2.77;;;23.30;41.50;;;;;;4950573;29;20479;-86
2022/07/09 07:44:26;;;;;;;6.20;2.93;;;23.20;43.50;;;;;;4945949;29;20512;-85
2022/07/09 07:46:52;;;;;;;7.33;2.73;;;22.90;42.50;;;;;;4947329;29;20434;-85
2022/07/09 07:49:19;;;;;;;6.80;2.77;;;22.90;43.10;;;;;;4946211;29;20867;-86
2022/07/09 07:51:47;;;;;;;7.13;3.17;;;22.90;44.30;;;;;;4947134;29;20491;-86
2022/07/09 07:54:14;;;;;;;9.57;3.17;;;22.70;43.80;;;;;;4928353;29;20460;-85
2022/07/09 07:56:41;;;;;;;6.40;2.70;;;23.40;43.20;;;;;;4927220;29;20457;-86
2022/07/09 07:59:08;;;;;;;7.93;3.53;;;23.70;42.40;;;;;;4943755;29;20452;-86
2022/07/09 08:01:34;;;;;;;5.93;2.73;;;24.00;39.10;;;;;;4940256;29;20480;-86
2022/07/09 08:04:01;;;;;;;5.30;2.30;;;23.60;38.70;;;;;;4944949;29;20471;-85
2022/07/09 08:06:28;;;;;;;5.43;2.10;;;23.70;40.60;;;;;;4945958;29;20456;-85
2022/07/09 08:08:56;;;;;;;4.90;1.80;;;24.00;42.30;;;;;;4944656;29;20524;-85
2022/07/09 08:11:23;;;;;;;7.50;2.77;;;23.80;38.80;;;;;;4944051;29;20480;-85
2022/07/09 08:13:49;;;;;;;5.73;2.00;;;23.50;37.20;;;;;;4939084;29;20460;-84
2022/07/09 08:16:19;;;;;;;7.03;1.90;;;23.70;38.80;;;;;;4940178;29;20487;-86
2022/07/09 08:18:47;;;;;;;5.83;2.13;;;23.50;35.40;;;;;;4940613;29;20559;-86
2022/07/09 08:21:14;;;;;;;4.70;1.97;;;23.40;38.50;;;;;;4942851;29;21062;-86
2022/07/09 08:23:53;;;;;;;7.40;2.20;;;23.20;37.60;;;;;;4941889;29;21024;-87
2022/07/09 08:26:22;;;;;;;8.03;2.23;;;24.00;39.10;;;;;;4936767;29;20876;-87
2022/07/09 08:28:49;;;;;;;5.53;2.03;;;24.30;36.00;;;;;;4936125;29;21013;-87
2022/07/09 08:31:16;;;;;;;4.90;1.90;;;24.30;31.80;;;;;;4940513;29;20476;-85
2022/07/09 08:33:43;;;;;;;10.43;1.57;;;24.00;33.60;;;;;;4946019;29;20460;-85
2022/07/09 08:36:10;;;;;;;4.40;1.60;;;24.00;32.40;;;;;;4945444;29;20457;-87
2022/07/09 08:38:37;;;;;;;5.73;1.80;;;23.60;33.50;;;;;;4939264;29;20891;-85
2022/07/09 08:41:06;;;;;;;5.30;1.73;;;23.80;34.60;;;;;;4938201;29;20453;-86
2022/07/09 08:43:36;;;;;;;7.73;2.30;;;24.50;36.70;;;;;;4938196;29;20476;-86
2022/07/09 08:46:03;;;;;;;4.43;1.53;;;25.30;31.40;;;;;;4935670;29;20471;-87
2022/07/09 08:48:34;;;;;;;5.00;1.43;;;25.90;28.50;;;;;;4935877;29;20456;-88
2022/07/09 08:51:02;;;;;;;4.47;1.70;;;26.20;26.20;;;;;;4935954;29;20476;-86
2022/07/09 08:53:29;;;;;;;5.83;2.10;;;25.60;25.40;;;;;;4940302;29;20481;-86
2022/07/09 08:55:57;;;;;;;5.90;1.97;;;25.20;27.40;;;;;;4941908;29;20999;-86
2022/07/09 08:58:25;;;;;;;4.47;1.67;;;25.30;28.70;;;;;;4938358;29;20456;-88
2022/07/09 09:00:53;;;;;;;4.90;1.60;;;25.50;28.40;;;;;;4935965;29;20498;-88
2022/07/09 09:03:20;;;;;;;6.83;1.30;;;25.30;27.60;;;;;;4935354;29;21051;-88
2022/07/09 09:06:02;;;;;;;6.07;1.47;;;25.60;24.40;;;;;;4934907;29;20456;-89
2022/07/09 09:08:36;;;;;;;4.73;1.53;;;26.30;24.00;;;;;;4936080;29;20516;-88
2022/07/09 09:11:03;;;;;;;8.13;1.43;;;26.30;21.90;;;;;;4935318;29;20568;-88
2022/07/09 09:13:37;;;;;;;5.33;1.77;;;26.70;18.90;;;;;;4935369;29;20473;-87
2022/07/09 09:16:07;;;;;;;5.73;1.30;;;27.20;23.30;;;;;;4935137;29;20461;-88
2022/07/09 09:18:36;;;;;;;7.60;1.80;;;28.70;19.50;;;;;;4935028;29;20460;-88
2022/07/09 09:21:05;;;;;;;5.70;1.50;;;29.20;13.10;;;;;;4935369;29;20428;-89
2022/07/09 09:23:40;;;;;;;4.40;1.53;;;28.50;15.30;;;;;;4935565;29;20484;-88
2022/07/09 09:26:16;;;;;;;4.97;1.40;;;27.70;12.70;;;;;;4935547;29;20917;-88
2022/07/09 09:28:51;;;;;;;3.90;1.13;;;28.90;10.30;;;;;;4935220;29;20452;-88
2022/07/09 09:31:24;;;;;;;3.90;1.20;;;30.00;10.70;;;;;;4934906;29;20486;-87
2022/07/09 09:33:52;;;;;;;5.40;1.10;;;29.50;8.00;;;;;;4935487;29;20484;-87
2022/07/09 09:36:31;;;;;;;4.60;1.30;;;30.20;9.50;;;;;;4935640;29;20456;-87
2022/07/09 09:39:18;;;;;;;5.40;1.30;;;30.50;3.30;;;;;;4935272;29;20569;-87
2022/07/09 09:41:47;;;;;;;6.40;1.20;;;29.90;4.50;;;;;;4935566;29;20483;-90
2022/07/09 09:44:16;;;;;;;5.73;1.50;;;29.60;7.00;;;;;;4935035;29;20467;-89
2022/07/09 09:46:46;;;;;;;4.80;1.17;;;30.40;1.00;;;;;;4935803;29;20483;-89
2022/07/09 09:49:15;;;;;;;3.80;1.00;;;31.20;1.30;;;;;;4934801;29;20539;-89
2022/07/09 09:51:48;;;;;;;3.90;0.90;;;31.00;1.00;;;;;;4935901;29;20492;-89
2022/07/09 09:54:16;;;;;;;4.70;1.00;;;29.20;2.60;;;;;;4936978;29;20996;-89
2022/07/09 09:56:43;;;;;;;4.30;1.27;;;28.50;2.20;;;;;;4935603;29;20491;-89
2022/07/09 09:59:11;;;;;;;4.53;0.93;;;28.00;5.60;;;;;;4935351;29;20463;-89
2022/07/09 10:01:41;;;;;;;4.67;1.17;;;27.40;7.80;;;;;;4935499;29;20489;-89
2022/07/09 10:04:14;;;;;;;5.07;1.33;;;27.50;7.00;;;;;;4934543;29;20465;-89
2022/07/09 10:06:42;;;;;;;4.30;1.00;;;27.60;8.40;;;;;;4935345;29;20460;-88
2022/07/09 10:09:12;;;;;;;4.77;1.17;;;27.40;10.40;;;;;;4935495;29;20461;-89
2022/07/09 10:11:40;;;;;;;4.40;1.47;;;27.40;10.10;;;;;;4939731;29;20929;-90
2022/07/09 10:14:10;;;;;;;5.43;1.70;;;27.60;10.20;;;;;;4938595;29;20464;-89
2022/07/09 10:16:40;;;;;;;4.67;1.30;;;28.00;9.00;;;;;;4939950;29;20456;-88
2022/07/09 10:19:09;;;;;;;5.43;1.67;;;27.90;7.30;;;;;;4927345;29;20529;-89
2022/07/09 10:21:39;;;;;;;4.40;1.27;;;28.00;6.30;;;;;;4921511;29;20482;-89
2022/07/09 10:24:09;;;;;;;4.67;1.50;;;28.80;4.30;;;;;;4934656;29;20904;-88
2022/07/09 10:26:46;;;;;;;6.50;1.30;;;29.50;4.30;;;;;;4939867;29;20462;-89
2022/07/09 10:29:24;;;;;;;4.20;1.40;;;30.20;3.10;;;;;;4938369;29;20467;-88
2022/07/09 10:31:52;;;;;;;5.70;2.00;;;29.70;1.00;;;;;;4938307;29;20487;-88
2022/07/09 10:34:54;;;;;;;4.63;1.50;;;29.70;1.00;;;;;;4938512;29;20459;-88
2022/07/09 10:37:33;;;;;;;4.20;1.33;;;30.00;1.00;;;;;;4937441;29;20437;-87
2022/07/09 10:40:11;;;;;;;4.20;1.10;;;31.20;1.00;;;;;;4918546;29;20949;-87
2022/07/09 10:42:38;;;;;;;4.43;1.33;;;30.20;2.10;;;;;;4919755;29;20477;-87
2022/07/09 10:45:23;;;;;;;4.80;1.45;;;29.60;1.00;;;;;;4937468;29;20461;-87
2022/07/09 10:47:54;;;;;;;5.53;1.30;;;29.60;1.00;;;;;;4937508;29;20197;-87
2022/07/09 10:50:21;;;;;;;5.20;1.60;;;29.70;1.00;;;;;;4938193;29;20457;-87
2022/07/09 10:52:53;;;;;;;7.00;1.50;;;29.20;3.30;;;;;;4938297;29;20488;-87
2022/07/09 10:55:20;;;;;;;5.30;1.60;;;27.90;1.80;;;;;;4939151;29;20535;-87
2022/07/09 10:57:47;;;;;;;4.40;1.30;;;27.80;3.80;;;;;;4938537;29;20475;-87
2022/07/09 11:00:18;;;;;;;5.80;1.50;;;27.50;6.30;;;;;;4938153;29;20945;-87
2022/07/09 11:02:56;;;;;;;5.60;1.60;;;27.40;5.30;;;;;;4939327;29;20487;-87
2022/07/09 11:05:23;;;;;;;5.03;1.50;;;28.50;5.70;;;;;;4938293;29;20464;-87
2022/07/09 11:07:59;;;;;;;4.80;1.47;;;28.60;2.20;;;;;;4937790;29;20453;-87
2022/07/09 11:10:27;;;;;;;4.10;1.50;;;27.90;5.50;;;;;;4918871;29;20457;-87
2022/07/09 11:12:55;;;;;;;3.97;1.40;;;27.80;4.60;;;;;;4919397;29;20488;-86
2022/07/09 11:15:23;;;;;;;6.00;2.20;;;28.50;7.80;;;;;;4936579;29;21268;-87
2022/07/09 11:18:00;;;;;;;5.60;1.80;;;28.00;4.90;;;;;;4937653;29;20467;-86
2022/07/09 11:20:29;;;;;;;4.47;1.50;;;27.30;6.60;;;;;;4937542;29;20564;-87
2022/07/09 11:22:59;;;;;;;5.47;1.70;;;27.40;7.90;;;;;;4936948;29;20476;-87
2022/07/09 11:25:27;;;;;;;4.53;1.73;;;28.50;5.70;;;;;;4937074;29;20512;-87
2022/07/09 11:27:55;;;;;;;5.30;2.10;;;29.20;3.90;;;;;;4937585;29;20453;-86
2022/07/09 11:30:22;;;;;;;5.87;2.00;;;28.80;2.40;;;;;;4937705;29;20461;-87
2022/07/09 11:32:49;;;;;;;4.60;1.90;;;28.50;5.10;;;;;;4936696;29;20492;-86
2022/07/09 11:35:29;;;;;;;4.70;1.80;;;28.40;5.50;;;;;;4937175;29;20456;-86
2022/07/09 11:37:59;;;;;;;5.70;1.87;;;27.60;6.00;;;;;;4936724;29;21002;-87
2022/07/09 11:40:26;;;;;;;9.90;3.33;;;28.00;5.80;;;;;;4937669;29;20464;-88
2022/07/09 11:42:53;;;;;;;4.70;2.20;;;28.20;4.30;;;;;;4937892;29;20476;-89
2022/07/09 11:45:25;;;;;;;5.80;2.03;;;27.90;5.80;;;;;;4937383;29;20484;-89
2022/07/09 11:48:03;;;;;;;7.90;2.70;;;27.30;6.10;;;;;;4939236;29;20582;-89
2022/07/09 11:50:34;;;;;;;6.10;2.50;;;26.80;9.10;;;;;;4934246;29;20483;-90
2022/07/09 11:53:02;;;;;;;4.80;2.03;;;26.90;9.20;;;;;;4938770;29;20480;-89
2022/07/09 11:55:31;;;;;;;5.63;2.60;;;27.00;9.20;;;;;;4936971;29;20457;-90
2022/07/09 11:57:59;;;;;;;7.40;2.30;;;27.20;9.30;;;;;;4938744;29;20520;-89
2022/07/09 12:00:28;;;;;;;4.80;2.30;;;26.50;11.00;;;;;;4940447;29;20499;-89
2022/07/09 12:02:56;;;;;;;5.53;2.90;;;25.80;11.30;;;;;;4938725;29;20484;-89
2022/07/09 12:05:30;;;;;;;7.80;3.00;;;25.40;14.40;;;;;;4940089;29;20453;-87
2022/07/09 12:07:58;;;;;;;6.87;2.93;;;25.00;14.50;;;;;;4938258;29;20457;-89
2022/07/09 12:10:32;;;;;;;6.90;3.40;;;24.60;16.80;;;;;;4939589;29;20468;-86
2022/07/09 12:12:59;;;;;;;5.57;2.57;;;24.20;18.00;;;;;;4937174;29;20503;-88
2022/07/09 12:15:26;;;;;;;5.53;2.40;;;24.10;19.40;;;;;;4938091;29;20468;-87
2022/07/09 12:17:55;;;;;;;5.83;2.53;;;24.10;20.30;;;;;;4942427;29;20452;-87
2022/07/09 12:20:22;;;;;;;6.20;3.13;;;24.30;19.90;;;;;;4943505;29;20467;-84
2022/07/09 12:22:49;;;;;;;6.03;2.73;;;24.40;20.90;;;;;;4949953;29;20496;-83
2022/07/09 12:25:17;;;;;;;7.23;3.40;;;24.40;20.30;;;;;;4948892;29;20466;-83
2022/07/09 12:27:45;;;;;;;5.77;2.60;;;24.50;21.80;;;;;;4949521;29;20488;-84
2022/07/09 12:30:13;;;;;;;8.87;2.93;;;24.50;21.90;;;;;;4950263;29;20456;-83
2022/07/09 12:32:40;;;;;;;6.40;3.37;;;24.30;22.90;;;;;;4950047;29;20484;-83
2022/07/09 12:35:09;;;;;;;5.30;2.60;;;23.80;22.50;;;;;;4949813;29;20459;-83
2022/07/09 12:37:36;;;;;;;6.40;3.20;;;23.50;26.00;;;;;;4949875;29;20465;-83